German Olano Airport


Codes: SKPC/PCR
Name: German Olano Airport
City: Puerto Carreno
Country: Colombia
Elevation: 177 ft.

Photos at German Olano Airport


   Photos courtesy of SpottingLog. You can add your own sightings and photos by signing up for a free trial today.



No photos found.

Weather at German Olano Airport


Time (UTC)DescriptionTempratureWindCloud coverageVisibilityPressureHumidity
16-Jun-2024 12:00Overcast Clouds24°C2 mph, W99%10000m1013hPa93%
16-Jun-2024 15:00Light Rain27°C2 mph, W100%10000m1014hPa81%
16-Jun-2024 18:00Light Rain30°C2 mph, W86%10000m1011hPa67%
16-Jun-2024 21:00Light Rain30°C2 mph, SW42%10000m1009hPa67%
17-Jun-2024 00:00Moderate Rain26°C2 mph, NE66%28m1011hPa88%
17-Jun-2024 03:00Heavy Intensity Rain24°C0 mph, SW100%3218m1012hPa97%
17-Jun-2024 06:00Moderate Rain24°C2 mph, SW100%10000m1011hPa95%
17-Jun-2024 09:00Light Rain24°C0 mph, NE100%10000m1011hPa94%
17-Jun-2024 12:00Overcast Clouds24°C4 mph, N100%10000m1013hPa93%
17-Jun-2024 15:00Overcast Clouds27°C4 mph, W100%10000m1012hPa82%
17-Jun-2024 18:00Light Rain30°C4 mph, W100%10000m1010hPa69%
17-Jun-2024 21:00Light Rain28°C7 mph, SW96%10000m1008hPa76%
18-Jun-2024 00:00Light Rain26°C7 mph, SW98%10000m1010hPa87%
18-Jun-2024 03:00Moderate Rain25°C4 mph, SW100%9812m1012hPa90%
18-Jun-2024 06:00Light Rain24°C4 mph, NW100%10000m1010hPa93%
18-Jun-2024 09:00Light Rain24°C4 mph, NW100%10000m1011hPa95%
18-Jun-2024 12:00Light Rain24°C4 mph, E100%10000m1011hPa93%
18-Jun-2024 15:00Light Rain27°C4 mph, NE99%10000m1012hPa80%
18-Jun-2024 18:00Light Rain26°C11 mph, NE99%10000m1010hPa87%
18-Jun-2024 21:00Light Rain24°C2 mph, N100%10000m1008hPa90%
19-Jun-2024 00:00Overcast Clouds24°C4 mph, NE100%10000m1010hPa94%
19-Jun-2024 03:00Overcast Clouds23°C4 mph, NE100%10000m1011hPa95%
19-Jun-2024 06:00Overcast Clouds23°C4 mph, NE100%10000m1009hPa95%
19-Jun-2024 09:00Overcast Clouds23°C2 mph, N100%10000m1010hPa95%
19-Jun-2024 12:00Overcast Clouds24°C4 mph, NE96%10000m1011hPa90%
19-Jun-2024 15:00Broken Clouds29°C4 mph, NE53%10000m1012hPa70%
19-Jun-2024 18:00Light Rain31°C2 mph, N51%10000m1008hPa58%
19-Jun-2024 21:00Light Rain31°C2 mph, E33%10000m1006hPa58%
20-Jun-2024 00:00Light Rain26°C4 mph, NE62%10000m1009hPa87%
20-Jun-2024 03:00Light Rain25°C2 mph, SE100%10000m1010hPa89%
20-Jun-2024 06:00Overcast Clouds25°C2 mph, SE100%10000m1009hPa91%
20-Jun-2024 09:00Light Rain24°C4 mph, E100%10000m1009hPa93%
20-Jun-2024 12:00Light Rain24°C2 mph, SE100%10000m1011hPa94%
20-Jun-2024 15:00Light Rain26°C7 mph, S100%10000m1012hPa88%
20-Jun-2024 18:00Light Rain27°C7 mph, SW100%10000m1010hPa83%
20-Jun-2024 21:00Light Rain28°C9 mph, SW99%10000m1009hPa77%
21-Jun-2024 00:00Overcast Clouds25°C4 mph, SW99%10000m1011hPa87%
21-Jun-2024 03:00Overcast Clouds24°C4 mph, SW100%10000m1012hPa91%
21-Jun-2024 06:00Light Rain24°C4 mph, SW100%10000m1011hPa94%
21-Jun-2024 09:00Light Rain23°C4 mph, SW100%10000m1011hPa95%